Time;durP1;ratioP1;P1;durP2;ratioP2;P2;SDS_P1;SDS_P2;PMS_P1;PMS_P2;Temp;Humidity;BMP_temperature;BMP_pressure;BME280_temperature;BME280_humidity;BME280_pressure;Samples;Min_cycle;Max_cycle;Signal;HPM_P1;HPM_P2
2021/12/23 00:00:05;;;;;;;47.13;31.60;;;;;;;-2.51;100.00;101530.69;5074905;28;20103;-65
2021/12/23 00:02:31;;;;;;;44.88;29.70;;;;;;;-2.53;100.00;101532.28;5074785;28;20107;-64
2021/12/23 00:04:56;;;;;;;48.40;30.05;;;;;;;-2.50;100.00;101535.06;5074984;28;20104;-65
2021/12/23 00:07:22;;;;;;;46.15;31.67;;;;;;;-2.58;100.00;101525.88;5075160;28;20482;-66
2021/12/23 00:12:12;;;;;;;45.65;30.30;;;;;;;-2.59;100.00;101513.75;5073834;28;20053;-71
2021/12/23 00:14:38;;;;;;;45.17;30.20;;;;;;;-2.64;100.00;101505.66;5074624;28;20044;-71
2021/12/23 00:17:20;;;;;;;44.47;29.60;;;;;;;-2.65;100.00;101487.41;5074572;28;20035;-69
2021/12/23 00:23:21;;;;;;;44.95;29.52;;;;;;;-2.60;100.00;101496.41;5074525;28;20028;-70
2021/12/23 00:25:19;;;;;;;45.80;31.15;;;;;;;-2.58;100.00;101494.81;5074596;28;20044;-71
2021/12/23 00:27:45;;;;;;;47.30;31.58;;;;;;;-2.60;100.00;101483.47;5074966;28;20462;-71
2021/12/23 00:30:10;;;;;;;45.80;30.80;;;;;;;-2.60;100.00;101475.69;5074256;28;20035;-69
2021/12/23 00:32:36;;;;;;;45.85;30.50;;;;;;;-2.56;100.00;101462.16;5074250;28;20024;-70
2021/12/23 00:35:04;;;;;;;44.63;29.58;;;;;;;-2.52;100.00;101443.47;5074345;28;20099;-70
2021/12/23 00:37:37;;;;;;;44.33;29.17;;;;;;;-2.52;100.00;101433.09;5074199;28;20485;-67
2021/12/23 00:40:04;;;;;;;43.25;29.25;;;;;;;-2.50;100.00;101449.63;5072901;28;20390;-70
2021/12/23 00:42:31;;;;;;;44.55;30.00;;;;;;;-2.46;100.00;101451.63;5074063;28;20033;-67
2021/12/23 00:44:56;;;;;;;44.15;29.15;;;;;;;-2.51;100.00;101453.00;5073974;28;20038;-67
2021/12/23 00:47:22;;;;;;;44.90;30.38;;;;;;;-2.49;100.00;101454.00;5074109;28;20028;-71
2021/12/23 00:49:47;;;;;;;47.20;30.05;;;;;;;-2.49;100.00;101441.06;5106814;28;20120;-71
2021/12/23 00:52:14;;;;;;;44.65;29.35;;;;;;;-2.47;100.00;101446.34;5073881;28;20052;-71
2021/12/23 00:54:40;;;;;;;44.33;28.50;;;;;;;-2.47;100.00;101439.47;5073955;28;20149;-69
2021/12/23 00:57:05;;;;;;;43.90;29.48;;;;;;;-2.51;100.00;101428.81;5073901;28;20033;-72
2021/12/23 00:59:31;;;;;;;44.63;28.98;;;;;;;-2.52;100.00;101443.47;5074008;28;20016;-71
2021/12/23 01:01:56;;;;;;;45.47;29.88;;;;;;;-2.51;100.00;101442.63;5073657;28;20111;-70
2021/12/23 01:04:21;;;;;;;43.95;28.50;;;;;;;-2.43;100.00;101452.63;5072554;28;20059;-71
2021/12/23 01:06:48;;;;;;;43.30;28.48;;;;;;;-2.41;100.00;101458.81;5073574;28;20089;-71
2021/12/23 01:09:13;;;;;;;44.63;28.70;;;;;;;-2.36;100.00;101460.91;5072541;28;20069;-71
2021/12/23 01:11:39;;;;;;;43.53;28.45;;;;;;;-2.32;100.00;101451.63;5073543;28;20052;-71
2021/12/23 01:17:00;;;;;;;43.50;29.17;;;;;;;-2.28;100.00;101461.41;5073604;28;20032;-71
2021/12/23 01:19:26;;;;;;;41.92;28.50;;;;;;;-2.31;100.00;101450.84;5073594;28;20027;-72
2021/12/23 01:21:52;;;;;;;42.05;28.65;;;;;;;-2.31;100.00;101443.97;5069502;28;20115;-71
2021/12/23 01:24:18;;;;;;;44.78;29.42;;;;;;;-2.32;100.00;101436.97;5073094;28;20107;-71
2021/12/23 01:26:43;;;;;;;44.67;28.88;;;;;;;-2.29;100.00;101431.13;5073007;28;20048;-71
2021/12/23 01:29:09;;;;;;;46.10;29.58;;;;;;;-2.28;100.00;101433.81;5073602;28;20032;-72
2021/12/23 01:31:38;;;;;;;45.65;29.77;;;;;;;-2.26;100.00;101422.66;5073422;28;20024;-72
2021/12/23 01:34:04;;;;;;;42.92;28.90;;;;;;;-2.25;100.00;101422.75;5073128;28;20024;-72
2021/12/23 01:36:30;;;;;;;46.17;29.23;;;;;;;-2.25;100.00;101417.56;5073145;28;20021;-71
2021/12/23 01:38:55;;;;;;;42.03;28.83;;;;;;;-2.25;100.00;101414.97;5073036;28;20143;-65
2021/12/23 01:41:23;;;;;;;44.92;29.58;;;;;;;-2.23;100.00;101403.00;5072868;28;20029;-66
2021/12/23 01:43:49;;;;;;;43.47;29.15;;;;;;;-2.21;100.00;101403.09;5073204;28;20048;-66
2021/12/23 01:46:15;;;;;;;43.20;29.42;;;;;;;-2.20;100.00;101411.00;5072859;28;20035;-66
2021/12/23 01:48:40;;;;;;;42.63;28.42;;;;;;;-2.19;100.00;101409.31;5073106;28;20104;-69
2021/12/23 01:51:06;;;;;;;44.38;29.05;;;;;;;-2.20;100.00;101399.72;5073304;28;20502;-67
2021/12/23 01:53:31;;;;;;;42.05;28.45;;;;;;;-2.18;100.00;101404.22;5072891;28;20059;-68
2021/12/23 01:55:58;;;;;;;43.88;29.35;;;;;;;-2.19;100.00;101396.34;5071245;28;20064;-67
2021/12/23 01:58:24;;;;;;;43.58;29.30;;;;;;;-2.20;100.00;101391.97;5072989;28;20374;-67
2021/12/23 02:00:51;;;;;;;45.17;29.50;;;;;;;-2.21;100.00;101385.91;5072711;28;20115;-66
2021/12/23 02:03:18;;;;;;;42.97;28.52;;;;;;;-2.24;100.00;101377.94;5072703;28;20025;-67
2021/12/23 02:05:43;;;;;;;44.10;29.08;;;;;;;-2.24;100.00;101379.59;5072699;28;20028;-70
2021/12/23 02:08:09;;;;;;;44.85;29.80;;;;;;;-2.27;100.00;101372.56;5072549;28;20025;-68
2021/12/23 02:10:35;;;;;;;42.05;28.13;;;;;;;-2.29;100.00;101369.88;5072784;28;20498;-67
2021/12/23 02:13:01;;;;;;;44.35;29.25;;;;;;;-2.31;100.00;101363.66;5072491;28;20020;-68
2021/12/23 02:15:26;;;;;;;43.10;28.25;;;;;;;-2.33;100.00;101367.88;5072610;28;20360;-66
2021/12/23 02:17:54;;;;;;;44.45;29.10;;;;;;;-2.34;100.00;101365.19;5072979;28;20021;-70
2021/12/23 02:20:24;;;;;;;43.40;29.02;;;;;;;-2.35;100.00;101360.78;5072409;28;20031;-66
2021/12/23 02:22:50;;;;;;;44.03;28.88;;;;;;;-2.37;100.00;101354.63;5072459;28;20505;-68
2021/12/23 02:25:17;;;;;;;42.95;28.88;;;;;;;-2.37;100.00;101349.44;5072425;28;20087;-70
2021/12/23 02:27:44;;;;;;;46.80;29.77;;;;;;;-2.39;100.00;101356.19;5072849;28;20404;-70
2021/12/23 02:30:16;;;;;;;44.10;29.02;;;;;;;-2.42;100.00;101359.47;5072457;28;20046;-72
2021/12/23 02:32:42;;;;;;;43.10;28.20;;;;;;;-2.47;100.00;101369.53;5072627;28;20375;-66
2021/12/23 02:35:12;;;;;;;43.15;28.20;;;;;;;-2.49;100.00;101371.16;5073751;28;20017;-67
2021/12/23 02:37:38;;;;;;;43.20;28.73;;;;;;;-2.56;100.00;101362.88;5076302;28;20507;-69
2021/12/23 02:40:04;;;;;;;42.55;29.08;;;;;;;-2.61;100.00;101383.28;5076270;28;20025;-67
2021/12/23 02:42:29;;;;;;;43.30;28.25;;;;;;;-2.67;100.00;101370.81;5076784;28;20104;-69
2021/12/23 02:44:55;;;;;;;43.65;28.38;;;;;;;-2.71;100.00;101371.44;5076320;28;20028;-67
2021/12/23 02:47:20;;;;;;;44.13;29.17;;;;;;;-2.72;100.00;101376.47;5076362;28;20550;-66
2021/12/23 02:49:46;;;;;;;45.95;29.92;;;;;;;-2.74;100.00;101378.09;5076428;28;20028;-70
2021/12/23 02:52:11;;;;;;;44.97;29.67;;;;;;;-2.79;100.00;101363.97;5076237;28;20036;-68
2021/12/23 02:54:36;;;;;;;46.05;29.02;;;;;;;-2.82;100.00;101357.75;5076138;28;20379;-66
2021/12/23 02:57:03;;;;;;;44.90;30.02;;;;;;;-2.81;100.00;101348.31;5076212;28;20792;-67
2021/12/23 02:59:28;;;;;;;46.85;31.02;;;;;;;-2.86;100.00;101334.19;5076005;28;20025;-68
2021/12/23 03:01:54;;;;;;;45.30;29.70;;;;;;;-2.93;100.00;101340.63;5076486;28;20013;-72
2021/12/23 03:04:19;;;;;;;45.95;31.02;;;;;;;-2.96;100.00;101336.94;5076038;28;20056;-72
2021/12/23 03:06:44;;;;;;;46.67;30.73;;;;;;;-2.94;100.00;101344.03;5075821;28;20028;-73
2021/12/23 03:09:10;;;;;;;46.22;30.88;;;;;;;-2.98;100.00;101331.69;5076013;28;20383;-71
2021/12/23 03:11:35;;;;;;;45.30;31.13;;;;;;;-3.04;100.00;101318.34;5075553;28;20049;-71
2021/12/23 03:14:01;;;;;;;47.05;30.92;;;;;;;-3.07;100.00;101339.72;5075959;28;20020;-71
2021/12/23 03:16:34;;;;;;;45.63;30.83;;;;;;;-3.04;100.00;101336.44;5076012;28;20024;-71
2021/12/23 03:18:59;;;;;;;46.25;30.88;;;;;;;-3.09;100.00;101318.00;5072548;28;20501;-72
2021/12/23 03:21:25;;;;;;;48.03;32.42;;;;;;;-3.05;100.00;101313.94;5075935;28;20020;-72
2021/12/23 03:23:51;;;;;;;48.17;32.45;;;;;;;-3.07;100.00;101318.09;5075739;28;20525;-72
2021/12/23 03:26:17;;;;;;;49.05;32.53;;;;;;;-3.07;100.00;101316.44;5075286;28;20150;-72
2021/12/23 03:28:43;;;;;;;49.38;33.28;;;;;;;-3.11;100.00;101301.50;5075435;28;20510;-72
2021/12/23 03:31:08;;;;;;;46.50;31.52;;;;;;;-3.12;100.00;101291.06;5075728;28;20024;-72
2021/12/23 03:33:34;;;;;;;48.15;33.58;;;;;;;-3.16;100.00;101275.34;5075653;28;20017;-72
2021/12/23 03:36:00;;;;;;;48.90;33.25;;;;;;;-3.14;100.00;101269.38;5075376;28;20028;-72
2021/12/23 03:38:26;;;;;;;50.17;34.75;;;;;;;-3.20;100.00;101286.25;5075482;28;20074;-72
2021/12/23 03:40:52;;;;;;;48.60;32.97;;;;;;;-3.15;100.00;101283.97;5075254;28;20027;-66
2021/12/23 03:43:18;;;;;;;50.42;33.88;;;;;;;-3.14;100.00;101279.72;5075192;28;20025;-65
2021/12/23 03:45:45;;;;;;;52.67;35.30;;;;;;;-3.06;100.00;101260.41;5074962;28;20544;-65
2021/12/23 03:48:12;;;;;;;51.55;34.75;;;;;;;-3.02;100.00;101263.28;5073246;28;20025;-66
2021/12/23 03:50:38;;;;;;;53.97;34.95;;;;;;;-2.98;100.00;101261.81;5074967;28;20024;-66
2021/12/23 03:53:03;;;;;;;50.90;35.33;;;;;;;-2.88;100.00;101255.56;5075261;28;20051;-65
2021/12/23 03:55:29;;;;;;;51.50;35.10;;;;;;;-2.84;100.00;101234.22;5074934;28;20041;-65
2021/12/23 03:57:54;;;;;;;51.30;34.70;;;;;;;-2.83;100.00;101223.97;5075176;28;20110;-66
2021/12/23 04:00:22;;;;;;;52.17;35.47;;;;;;;-2.75;100.00;101227.09;5075413;28;20077;-65
2021/12/23 04:02:48;;;;;;;52.97;35.78;;;;;;;-2.75;100.00;101221.00;5074911;28;20056;-65
2021/12/23 04:05:15;;;;;;;52.35;34.63;;;;;;;-2.72;100.00;101223.75;5074687;28;20546;-66
2021/12/23 04:07:42;;;;;;;51.55;35.15;;;;;;;-2.66;100.00;101234.53;5074928;28;20056;-65
2021/12/23 04:10:11;;;;;;;52.15;36.08;;;;;;;-2.68;100.00;101249.97;5074983;28;20103;-67
2021/12/23 04:12:36;;;;;;;51.17;34.70;;;;;;;-2.62;100.00;101241.72;5074460;28;20491;-68
2021/12/23 04:15:03;;;;;;;50.17;34.65;;;;;;;-2.52;100.00;101230.22;5075027;28;20032;-65
2021/12/23 04:17:28;;;;;;;54.13;37.05;;;;;;;-2.50;100.00;101210.53;5074901;28;20040;-70
2021/12/23 04:19:59;;;;;;;53.33;35.78;;;;;;;-2.40;100.00;101207.72;5074411;28;20020;-71
2021/12/23 04:22:25;;;;;;;52.83;36.45;;;;;;;-2.45;100.00;101216.88;5075018;28;20392;-67
2021/12/23 04:24:50;;;;;;;52.20;36.92;;;;;;;-2.49;100.00;101223.56;5074439;28;20111;-70
2021/12/23 04:27:16;;;;;;;52.92;36.03;;;;;;;-2.48;100.00;101220.16;5074255;28;20054;-66
2021/12/23 04:29:41;;;;;;;54.28;35.53;;;;;;;-2.46;100.00;101217.69;5074538;28;20056;-66
2021/12/23 04:32:07;;;;;;;51.25;35.17;;;;;;;-2.50;100.00;101237.28;5074304;28;20028;-66
2021/12/23 04:34:32;;;;;;;55.78;37.00;;;;;;;-2.48;100.00;101221.84;5074329;28;20067;-67
2021/12/23 04:36:57;;;;;;;53.72;36.53;;;;;;;-2.55;100.00;101207.66;5074363;28;20036;-71
2021/12/23 04:39:23;;;;;;;53.88;35.35;;;;;;;-2.47;100.00;101193.47;5070099;28;20029;-69
2021/12/23 04:41:48;;;;;;;55.38;37.63;;;;;;;-2.57;100.00;101193.69;5074183;28;20028;-66
2021/12/23 04:44:13;;;;;;;58.13;38.83;;;;;;;-2.63;100.00;101206.25;5073962;28;20059;-66
2021/12/23 04:46:39;;;;;;;55.10;37.47;;;;;;;-2.59;100.00;101184.94;5073860;28;20089;-68
2021/12/23 04:49:04;;;;;;;58.00;39.80;;;;;;;-2.60;100.00;101175.38;5073307;28;20040;-68
2021/12/23 04:51:30;;;;;;;57.42;38.88;;;;;;;-2.61;100.00;101191.69;5074007;28;20024;-66
2021/12/23 04:53:55;;;;;;;56.90;38.50;;;;;;;-2.62;100.00;101179.56;5073812;28;20035;-67
2021/12/23 04:56:21;;;;;;;55.65;39.17;;;;;;;-2.62;100.00;101187.34;5074298;28;20062;-71
2021/12/23 04:58:46;;;;;;;54.22;37.63;;;;;;;-2.57;100.00;101172.97;5073686;28;20399;-69
2021/12/23 05:01:19;;;;;;;57.47;39.08;;;;;;;-2.60;100.00;101162.44;5073762;28;20028;-66
2021/12/23 05:03:47;;;;;;;57.40;39.40;;;;;;;-2.58;100.00;101154.75;5074100;28;20035;-67
2021/12/23 05:06:13;;;;;;;57.67;39.00;;;;;;;-2.61;100.00;101160.63;5073517;28;20468;-67
2021/12/23 05:08:38;;;;;;;57.20;38.63;;;;;;;-2.51;100.00;101160.41;5073641;28;20430;-66
2021/12/23 05:11:03;;;;;;;54.83;38.45;;;;;;;-2.51;100.00;101155.22;5073522;28;20072;-65
2021/12/23 05:13:29;;;;;;;58.53;40.90;;;;;;;-2.53;100.00;101149.06;5073401;28;20110;-68
2021/12/23 05:15:54;;;;;;;59.08;40.70;;;;;;;-2.50;100.00;101154.44;5073625;28;20035;-68
2021/12/23 05:18:19;;;;;;;60.72;41.90;;;;;;;-2.45;100.00;101154.72;5073588;28;20091;-66
2021/12/23 05:20:45;;;;;;;60.00;41.75;;;;;;;-2.48;100.00;101155.41;5073255;28;20502;-67
2021/12/23 05:23:10;;;;;;;59.47;41.22;;;;;;;-2.44;100.00;101151.34;5073248;28;20073;-66
2021/12/23 05:25:35;;;;;;;60.28;43.50;;;;;;;-2.48;100.00;101155.41;5073476;28;20415;-66
2021/12/23 05:28:01;;;;;;;62.00;43.10;;;;;;;-2.48;100.00;101155.41;5073104;28;20033;-67
2021/12/23 05:30:27;;;;;;;60.83;42.97;;;;;;;-2.47;100.00;101152.03;5073165;28;20029;-66
2021/12/23 05:32:54;;;;;;;63.75;42.67;;;;;;;-2.50;100.00;101143.19;5073310;28;20016;-66
2021/12/23 05:35:20;;;;;;;60.83;42.60;;;;;;;-2.46;100.00;101143.47;5073228;28;20399;-69
2021/12/23 05:37:47;;;;;;;63.10;42.47;;;;;;;-2.44;100.00;101150.44;5073573;28;20063;-69
2021/12/23 05:40:15;;;;;;;63.60;43.30;;;;;;;-2.48;100.00;101150.25;5073280;28;20028;-66
2021/12/23 05:42:40;;;;;;;61.63;43.40;;;;;;;-2.46;100.00;101135.72;5072861;28;20070;-66
2021/12/23 05:45:06;;;;;;;61.67;43.30;;;;;;;-2.44;100.00;101127.16;5072757;28;20016;-66
2021/12/23 05:47:32;;;;;;;62.88;43.70;;;;;;;-2.40;100.00;101121.34;5073036;28;20065;-69
2021/12/23 05:49:57;;;;;;;61.78;42.28;;;;;;;-2.42;100.00;101117.75;5073102;28;20032;-69
2021/12/23 05:52:23;;;;;;;63.17;42.08;;;;;;;-2.37;100.00;101112.06;5072992;28;20076;-68
2021/12/23 05:54:48;;;;;;;67.70;43.20;;;;;;;-2.43;100.00;101115.97;5072867;28;20032;-67
2021/12/23 05:57:13;;;;;;;62.70;42.90;;;;;;;-2.43;100.00;101126.31;5072758;28;20470;-67
2021/12/23 05:59:39;;;;;;;63.53;41.88;;;;;;;-2.37;100.00;101121.53;5073045;28;20037;-70
2021/12/23 06:02:05;;;;;;;62.72;42.20;;;;;;;-2.41;100.00;101119.56;5072975;28;20032;-71
2021/12/23 06:04:32;;;;;;;61.17;41.72;;;;;;;-2.40;100.00;101111.88;5072686;28;20101;-70
2021/12/23 06:06:57;;;;;;;60.33;40.40;;;;;;;-2.45;100.00;101121.06;5073038;28;20064;-71
2021/12/23 06:09:23;;;;;;;62.35;41.13;;;;;;;-2.43;100.00;101132.41;5072101;28;20548;-66
2021/12/23 06:11:48;;;;;;;60.53;40.15;;;;;;;-2.41;100.00;101133.41;5071162;28;20044;-71
2021/12/23 06:14:14;;;;;;;63.08;42.05;;;;;;;-2.43;100.00;101123.75;5072638;28;20078;-70
2021/12/23 06:16:39;;;;;;;58.25;38.13;;;;;;;-2.36;100.00;101123.31;5072772;28;20037;-68
2021/12/23 06:19:04;;;;;;;60.97;40.63;;;;;;;-2.43;100.00;101124.66;5072399;28;20048;-68
2021/12/23 06:21:31;;;;;;;61.33;40.47;;;;;;;-2.43;100.00;101110.78;5073047;28;20055;-69
2021/12/23 06:23:57;;;;;;;62.42;40.72;;;;;;;-2.47;100.00;101104.53;5072434;28;20028;-68
2021/12/23 06:26:23;;;;;;;62.80;42.13;;;;;;;-2.45;100.00;101100.34;5072255;28;20475;-67
2021/12/23 06:28:48;;;;;;;61.20;39.85;;;;;;;-2.47;100.00;101102.84;5072485;28;20031;-67
2021/12/23 06:31:14;;;;;;;59.97;39.95;;;;;;;-2.48;100.00;101103.63;5072252;28;20110;-66
2021/12/23 06:33:39;;;;;;;64.50;41.35;;;;;;;-2.49;100.00;101096.69;5072825;28;20036;-67
2021/12/23 06:36:05;;;;;;;62.92;40.58;;;;;;;-2.46;100.00;101088.22;5072368;28;20082;-67
2021/12/23 06:38:30;;;;;;;57.47;39.38;;;;;;;-2.47;100.00;101083.81;5072333;28;20031;-67
2021/12/23 06:40:56;;;;;;;60.80;40.38;;;;;;;-2.47;100.00;101082.13;5072531;28;20074;-69
2021/12/23 06:43:22;;;;;;;61.10;40.45;;;;;;;-2.44;100.00;101078.84;5070896;28;20123;-67
2021/12/23 06:45:47;;;;;;;61.90;39.70;;;;;;;-2.44;100.00;101065.00;5071963;28;20460;-71
2021/12/23 06:48:13;;;;;;;62.03;41.92;;;;;;;-2.41;100.00;101072.94;5072420;28;20025;-71
2021/12/23 06:50:38;;;;;;;62.25;40.20;;;;;;;-2.37;100.00;101072.34;5072173;28;20075;-71
2021/12/23 06:53:04;;;;;;;62.58;41.33;;;;;;;-2.35;100.00;101066.44;5072129;28;20383;-71
2021/12/23 06:55:30;;;;;;;59.92;39.72;;;;;;;-2.31;100.00;101067.53;5070375;28;20028;-70
2021/12/23 06:57:56;;;;;;;60.47;38.83;;;;;;;-2.25;100.00;101067.00;5069518;28;20024;-71
2021/12/23 07:00:22;;;;;;;64.47;40.08;;;;;;;-2.25;100.00;101067.00;5069561;28;20078;-69
2021/12/23 07:02:48;;;;;;;62.15;39.80;;;;;;;-2.19;100.00;101076.00;5069795;28;20107;-68
2021/12/23 07:05:15;;;;;;;62.22;39.90;;;;;;;-2.15;100.00;101077.09;5069767;28;20112;-70
2021/12/23 07:07:52;;;;;;;62.13;40.00;;;;;;;-2.14;100.00;101074.59;5069218;28;20501;-68
2021/12/23 07:10:18;;;;;;;59.00;37.58;;;;;;;-2.13;100.00;101083.25;5069898;28;20411;-69
2021/12/23 07:12:43;;;;;;;64.03;39.35;;;;;;;-2.09;100.00;101071.38;5068963;28;20094;-71
2021/12/23 07:15:09;;;;;;;59.28;37.40;;;;;;;-2.05;100.00;101078.50;5069507;28;20036;-67
2021/12/23 07:17:35;;;;;;;59.80;37.10;;;;;;;-2.04;100.00;101064.75;5069667;28;20025;-68
2021/12/23 07:20:01;;;;;;;57.70;36.25;;;;;;;-1.99;100.00;101064.22;5069363;28;20517;-69
2021/12/23 07:22:26;;;;;;;59.80;37.72;;;;;;;-2.02;100.00;101068.34;5072286;28;20024;-67
2021/12/23 07:24:52;;;;;;;61.53;38.22;;;;;;;-2.01;100.00;101080.50;5072289;28;20021;-69
2021/12/23 07:27:18;;;;;;;58.20;37.35;;;;;;;-1.99;100.00;101077.19;5073083;28;20082;-69
2021/12/23 07:29:43;;;;;;;60.47;37.92;;;;;;;-1.95;100.00;101070.50;5073063;28;20059;-72
2021/12/23 07:32:09;;;;;;;58.42;36.30;;;;;;;-1.96;100.00;101073.91;5072187;28;20467;-70
2021/12/23 07:34:39;;;;;;;60.85;37.90;;;;;;;-1.96;100.00;101068.72;5072870;28;20432;-70
2021/12/23 07:37:04;;;;;;;58.65;36.72;;;;;;;-1.95;100.00;101080.88;5072912;28;20028;-71
2021/12/23 07:39:30;;;;;;;58.20;35.08;;;;;;;-1.95;100.00;101080.88;5072234;28;20029;-71
2021/12/23 07:41:55;;;;;;;58.20;36.22;;;;;;;-1.91;100.00;101082.81;5072121;28;20413;-68
2021/12/23 07:44:21;;;;;;;59.20;36.33;;;;;;;-1.89;100.00;101077.72;5072983;28;20078;-69
2021/12/23 07:46:48;;;;;;;58.67;36.78;;;;;;;-1.87;100.00;101082.19;5072780;28;20109;-70
2021/12/23 07:49:13;;;;;;;57.92;36.75;;;;;;;-1.83;100.00;101083.28;5072828;28;20028;-70
2021/12/23 07:51:39;;;;;;;58.53;35.97;;;;;;;-1.84;100.00;101081.50;5072200;28;20063;-68
2021/12/23 07:54:05;;;;;;;58.20;36.55;;;;;;;-1.82;100.00;101077.28;5072232;28;20036;-70
2021/12/23 07:56:31;;;;;;;59.00;37.50;;;;;;;-1.78;100.00;101076.66;5071852;28;20082;-69
2021/12/23 07:58:56;;;;;;;58.33;36.83;;;;;;;-1.78;100.00;101080.16;5072796;28;20444;-68
2021/12/23 08:01:22;;;;;;;56.83;35.55;;;;;;;-1.74;100.00;101076.03;5071344;28;20589;-67
2021/12/23 08:03:47;;;;;;;57.72;36.38;;;;;;;-1.73;100.00;101066.53;5071922;28;20032;-67
2021/12/23 08:06:13;;;;;;;57.55;36.90;;;;;;;-1.73;100.00;101067.47;5072572;28;20119;-69
2021/12/23 08:08:38;;;;;;;60.83;37.58;;;;;;;-1.70;100.00;101067.63;5071879;28;20154;-71
2021/12/23 08:11:06;;;;;;;60.38;38.45;;;;;;;-1.68;100.00;101065.13;5071610;28;20049;-69
2021/12/23 08:13:31;;;;;;;59.03;37.25;;;;;;;-1.65;100.00;101065.28;5072352;28;20020;-65
2021/12/23 08:15:58;;;;;;;59.22;36.80;;;;;;;-1.66;100.00;101064.41;5072292;28;20029;-69
2021/12/23 08:18:23;;;;;;;56.95;35.45;;;;;;;-1.63;100.00;101067.19;5072243;28;20032;-66
2021/12/23 08:20:48;;;;;;;59.15;36.72;;;;;;;-1.62;100.00;101066.34;5071543;28;20061;-65
2021/12/23 08:23:14;;;;;;;59.33;37.17;;;;;;;-1.57;100.00;101066.63;5071352;28;20029;-67
2021/12/23 08:25:39;;;;;;;57.80;37.10;;;;;;;-1.54;100.00;101059.03;5071969;28;20530;-69
2021/12/23 08:28:04;;;;;;;56.50;36.00;;;;;;;-1.53;100.00;101049.53;5072405;28;20066;-67
2021/12/23 08:30:31;;;;;;;60.10;37.33;;;;;;;-1.52;100.00;101040.97;5072297;28;20126;-69
2021/12/23 08:32:57;;;;;;;58.35;36.08;;;;;;;-1.49;100.00;101043.72;5071652;28;20102;-70
2021/12/23 08:35:22;;;;;;;56.63;35.47;;;;;;;-1.46;100.00;101046.47;5073896;28;20085;-70
2021/12/23 08:37:50;;;;;;;57.45;35.53;;;;;;;-1.41;100.00;101040.75;5071518;28;20039;-73
2021/12/23 08:40:21;;;;;;;60.25;37.75;;;;;;;-1.35;100.00;101036.72;5072265;28;20376;-74
2021/12/23 08:42:48;;;;;;;58.35;37.67;;;;;;;-1.30;100.00;101030.06;5071812;28;20032;-74
2021/12/23 08:45:14;;;;;;;57.55;36.00;;;;;;;-1.23;100.00;101022.69;5071574;28;20103;-74
2021/12/23 08:47:39;;;;;;;57.85;35.80;;;;;;;-1.13;100.00;101015.44;5071239;28;20108;-74
2021/12/23 08:50:08;;;;;;;58.78;36.53;;;;;;;-1.06;100.00;101015.84;5071460;28;20035;-75
2021/12/23 08:52:34;;;;;;;54.92;35.35;;;;;;;-1.02;100.00;101016.00;5071460;28;20025;-75
2021/12/23 08:55:01;;;;;;;57.85;36.00;;;;;;;-0.99;100.00;101014.50;5071527;28;20570;-74
2021/12/23 08:57:26;;;;;;;57.65;36.03;;;;;;;-0.97;100.00;101001.59;5070260;28;20205;-73
2021/12/23 08:59:51;;;;;;;58.38;36.17;;;;;;;-0.97;100.00;101009.38;5071334;28;20107;-72
2021/12/23 09:02:17;;;;;;;57.55;35.22;;;;;;;-0.95;100.00;101010.34;5070798;28;20023;-71
2021/12/23 09:04:42;;;;;;;55.80;36.22;;;;;;;-0.91;100.00;101012.28;5070864;28;20498;-71
2021/12/23 09:07:10;;;;;;;56.20;35.25;;;;;;;-0.82;100.00;101004.09;5071801;28;20098;-70
2021/12/23 09:09:36;;;;;;;56.42;34.72;;;;;;;-0.74;100.00;101006.28;5067199;28;20087;-71
2021/12/23 09:12:03;;;;;;;54.95;34.17;;;;;;;-0.62;100.00;100997.38;5070563;28;20041;-70
2021/12/23 09:14:29;;;;;;;57.03;35.13;;;;;;;-0.47;100.00;100995.53;5069770;28;20033;-71
2021/12/23 09:16:54;;;;;;;55.20;33.65;;;;;;;-0.40;100.00;101001.94;5071022;28;20381;-69
2021/12/23 09:19:20;;;;;;;55.63;34.05;;;;;;;-0.45;100.00;100993.94;5067831;28;20086;-70
2021/12/23 09:21:45;;;;;;;58.78;36.35;;;;;;;-0.49;100.00;101004.97;5071043;28;20431;-70
2021/12/23 09:24:11;;;;;;;58.40;34.67;;;;;;;-0.48;100.00;100993.78;5071401;28;20522;-70
2021/12/23 09:26:47;;;;;;;56.20;35.25;;;;;;;-0.44;100.00;100995.69;5068929;28;20123;-71
2021/12/23 09:32:38;;;;;;;59.50;35.42;;;;;;;-0.38;100.00;100985.63;5068752;28;20020;-74
2021/12/23 09:34:41;;;;;;;56.67;35.00;;;;;;;-0.31;100.00;100998.94;5069596;28;20042;-73
2021/12/23 09:37:07;;;;;;;54.97;34.08;;;;;;;-0.31;100.00;100999.81;5070573;28;20442;-71
2021/12/23 09:39:32;;;;;;;57.17;35.03;;;;;;;-0.31;100.00;100988.53;5070533;28;20040;-73
2021/12/23 09:41:57;;;;;;;54.47;33.83;;;;;;;-0.26;100.00;100994.84;5070650;28;20031;-69
2021/12/23 09:44:23;;;;;;;54.80;33.13;;;;;;;-0.25;100.00;100986.25;5069825;28;20490;-69
2021/12/23 09:46:49;;;;;;;59.03;35.63;;;;;;;-0.20;100.00;100980.47;5070236;28;20129;-69
2021/12/23 09:49:15;;;;;;;52.95;33.38;;;;;;;-0.12;100.00;100983.44;5069481;28;20121;-70
2021/12/23 09:51:41;;;;;;;55.45;33.65;;;;;;;-0.06;100.00;100975.06;5070565;28;20078;-70
2021/12/23 09:54:08;;;;;;;54.33;32.70;;;;;;;-0.04;100.00;100973.44;5070826;28;20028;-70
2021/12/23 09:56:34;;;;;;;54.67;33.38;;;;;;;-0.03;100.00;100972.59;5070313;28;20021;-70
2021/12/23 09:59:01;;;;;;;55.25;33.33;;;;;;;-0.05;100.00;100964.72;5069390;28;20029;-69
2021/12/23 10:01:28;;;;;;;55.13;32.70;;;;;;;-0.06;100.00;100959.47;5068561;28;20494;-73
2021/12/23 10:03:54;;;;;;;54.83;33.72;;;;;;;-0.10;100.00;100955.84;5070102;28;20134;-72
2021/12/23 10:06:19;;;;;;;55.22;33.20;;;;;;;-0.08;100.00;100951.59;5070485;28;20024;-73
2021/12/23 10:08:45;;;;;;;55.10;32.28;;;;;;;-0.07;100.00;100958.56;5070541;28;20038;-73
2021/12/23 10:11:21;;;;;;;58.78;33.47;;;;;;;-0.03;100.00;100965.72;5070234;28;20438;-72
2021/12/23 10:30:33;;;;;;;52.83;32.25;;;;;;;0.16;100.00;100925.00;5068130;28;20070;-73
2021/12/23 10:38:37;;;;;;;52.90;31.25;;;;;;;0.30;100.00;100892.72;5070138;28;20227;-74
2021/12/23 10:41:09;;;;;;;53.45;31.63;;;;;;;0.38;100.00;100892.19;5072012;28;20104;-73
2021/12/23 10:43:41;;;;;;;54.58;32.80;;;;;;;0.39;100.00;100875.78;5071967;28;20032;-66
2021/12/23 10:46:12;;;;;;;53.90;31.15;;;;;;;0.50;100.00;100877.16;5071935;28;20036;-67
2021/12/23 10:48:53;;;;;;;53.13;31.70;;;;;;;0.62;99.99;100871.63;5071993;28;20025;-66
2021/12/23 10:51:20;;;;;;;52.83;31.88;;;;;;;0.69;99.92;100869.34;5071982;28;20113;-69
2021/12/23 10:59:21;;;;;;;51.97;30.98;;;;;;;0.96;97.85;100861.00;5076271;28;20479;-66
2021/12/23 11:02:16;;;;;;;53.83;33.40;;;;;;;1.04;98.63;100867.41;5075967;28;20521;-67
2021/12/23 11:04:57;;;;;;;50.72;31.60;;;;;;;1.13;98.30;100850.41;5075175;28;20028;-67
2021/12/23 11:07:26;;;;;;;51.63;30.13;;;;;;;1.26;95.89;100836.22;5102752;28;20055;-67
2021/12/23 11:10:17;;;;;;;52.88;31.52;;;;;;;1.26;96.81;100829.28;5076155;28;20100;-67
2021/12/23 11:37:40;;;;;;;45.28;27.15;;;;;;;2.94;87.72;100793.94;5075694;28;20130;-69
2021/12/23 11:43:25;;;;;;;47.35;28.00;;;;;;;2.89;86.41;100771.09;5070418;28;20032;-68
2021/12/23 11:45:50;;;;;;;47.28;29.73;;;;;;;2.81;87.47;100776.06;5072893;28;20135;-68
2021/12/23 11:48:16;;;;;;;48.42;28.23;;;;;;;2.82;87.38;100770.00;5072888;28;20048;-66
2021/12/23 11:51:06;;;;;;;45.78;27.15;;;;;;;2.93;86.82;100770.38;5073282;28;20506;-70
2021/12/23 11:53:32;;;;;;;47.33;27.88;;;;;;;3.03;86.94;100764.63;5073147;28;20033;-67
2021/12/23 11:56:00;;;;;;;45.78;28.05;;;;;;;3.10;85.45;100764.00;5072976;28;20093;-70
2021/12/23 11:58:27;;;;;;;46.03;27.35;;;;;;;3.14;85.38;100758.00;5072965;28;20111;-68
2021/12/23 12:01:04;;;;;;;46.47;27.50;;;;;;;3.23;85.56;100754.84;5068784;28;20071;-68
2021/12/23 12:03:30;;;;;;;46.45;30.05;;;;;;;3.57;84.50;100753.31;5069814;28;20446;-69
2021/12/23 12:06:16;;;;;;;46.55;27.60;;;;;;;3.90;83.88;100743.81;5072710;28;20037;-69